OEAAM EDDN-EDDN

Flight info

Callsign OEAAM
Flight time 0h 32m
Altitude 3000
Route VFR EXIT F / ENTER S
Aircraft DV20/L-OVY/L

Departure

Time 2026-04-28 19:27
Airport Nuremberg Airport (EDDN)

Arrival

Time 2026-04-28 19:59
Airport Nuremberg Airport (EDDN)
Time Latitude Longitude Altitude Speed Heading
2026-04-28 19:08 49.49413 11.06877 1015 ft 0 kts 280°
2026-04-28 19:19 49.49415 11.06872 1015 ft 0 kts 308°
2026-04-28 19:19 49.49417 11.06869 1015 ft 1 kts 335°
2026-04-28 19:20 49.49431 11.06883 1016 ft 6 kts 57°
2026-04-28 19:20 49.49474 11.06915 1019 ft 7 kts
2026-04-28 19:20 49.49519 11.06931 1019 ft 8 kts 45°
2026-04-28 19:20 49.49518 11.07014 1019 ft 8 kts 92°
2026-04-28 19:21 49.49515 11.07072 1019 ft 5 kts 104°
2026-04-28 19:21 49.49512 11.07096 1019 ft 0 kts 98°
2026-04-28 19:21 49.49506 11.07157 1019 ft 10 kts 97°
2026-04-28 19:21 49.49521 11.07194 1019 ft 0 kts
2026-04-28 19:22 49.49533 11.07197 1020 ft 7 kts
2026-04-28 19:23 49.49607 11.07213 1020 ft 13 kts
2026-04-28 19:23 49.49702 11.07230 1020 ft 14 kts 349°
2026-04-28 19:23 49.49745 11.07132 1018 ft 12 kts 282°
2026-04-28 19:23 49.49807 11.07057 1015 ft 9 kts 339°
2026-04-28 19:24 49.49833 11.07042 1015 ft 0 kts 338°
2026-04-28 19:25 49.49857 11.07027 1015 ft 12 kts 339°
2026-04-28 19:26 49.49932 11.07032 1016 ft 12 kts 44°
2026-04-28 19:26 49.49920 11.07321 1022 ft 51 kts 98°
2026-04-28 19:26 49.49843 11.07982 1187 ft 64 kts 95°
2026-04-28 19:26 49.49763 11.08656 1436 ft 64 kts 97°
2026-04-28 19:27 49.49656 11.09368 1648 ft 70 kts 97°
2026-04-28 19:27 49.49563 11.10084 1932 ft 64 kts 84°
2026-04-28 19:27 49.49708 11.10653 2195 ft 56 kts 54°
2026-04-28 19:27 49.50063 11.10927 2388 ft 63 kts 18°
2026-04-28 19:28 49.50515 11.10651 2538 ft 85 kts 335°
2026-04-28 19:28 49.50908 11.09880 2675 ft 99 kts 306°
2026-04-28 19:28 49.51070 11.08744 2671 ft 113 kts 279°
2026-04-28 19:28 49.51077 11.07488 2645 ft 120 kts 274°
2026-04-28 19:29 49.51023 11.06186 2617 ft 121 kts 270°
2026-04-28 19:29 49.51004 11.05349 2692 ft 115 kts 278°
2026-04-28 19:29 49.51046 11.03721 2740 ft 119 kts 263°
2026-04-28 19:29 49.50711 11.02523 2734 ft 122 kts 233°
2026-04-28 19:30 49.50168 11.01574 2757 ft 118 kts 217°
2026-04-28 19:30 49.49545 11.00794 2778 ft 115 kts 210°
2026-04-28 19:30 49.48862 11.00205 2801 ft 113 kts 198°
2026-04-28 19:30 49.48136 10.99775 2822 ft 112 kts 188°
2026-04-28 19:31 49.47386 10.99430 2860 ft 114 kts 188°
2026-04-28 19:31 49.46632 10.99095 2919 ft 112 kts 187°
2026-04-28 19:31 49.45871 10.98795 2937 ft 113 kts 184°
2026-04-28 19:31 49.45106 10.98518 2950 ft 113 kts 184°
2026-04-28 19:32 49.44351 10.98226 2978 ft 112 kts 185°
2026-04-28 19:32 49.43593 10.97905 3002 ft 113 kts 185°
2026-04-28 19:32 49.42829 10.97597 3022 ft 113 kts 184°
2026-04-28 19:32 49.42066 10.97462 3010 ft 108 kts 165°
2026-04-28 19:33 49.41351 10.97663 3054 ft 103 kts 155°
2026-04-28 19:33 49.40671 10.97963 3081 ft 99 kts 147°
2026-04-28 19:33 49.40064 10.98465 3053 ft 99 kts 137°
2026-04-28 19:33 49.39519 10.99100 3042 ft 97 kts 130°
2026-04-28 19:34 49.39013 10.99776 3050 ft 96 kts 129°
2026-04-28 19:34 49.38550 11.00490 3072 ft 93 kts 124°
2026-04-28 19:34 49.38121 11.01219 3101 ft 91 kts 121°
2026-04-28 19:34 49.37719 11.01985 3118 ft 91 kts 119°
2026-04-28 19:35 49.37327 11.02768 3129 ft 94 kts 118°
2026-04-28 19:35 49.36923 11.03562 3134 ft 94 kts 120°
2026-04-28 19:35 49.36531 11.04380 3066 ft 97 kts 118°
2026-04-28 19:35 49.36136 11.05208 3033 ft 95 kts 118°
2026-04-28 19:36 49.35748 11.06020 3016 ft 94 kts 119°
2026-04-28 19:36 49.35196 11.06588 3012 ft 109 kts 165°
2026-04-28 19:36 49.34497 11.06001 2999 ft 127 kts 228°
2026-04-28 19:36 49.34308 11.04728 3046 ft 123 kts 286°
2026-04-28 19:37 49.34742 11.03685 3017 ft 112 kts 339°
2026-04-28 19:37 49.35219 11.03573 2974 ft 99 kts 22°
2026-04-28 19:37 49.35738 11.04518 2968 ft 89 kts 72°
2026-04-28 19:37 49.35893 11.05426 2979 ft 86 kts 79°
2026-04-28 19:38 49.36003 11.06332 2978 ft 87 kts 80°
2026-04-28 19:38 49.36098 11.07239 3000 ft 86 kts 84°
2026-04-28 19:38 49.36098 11.08104 3238 ft 73 kts 92°
2026-04-28 19:38 49.36045 11.08844 3467 ft 69 kts 95°
2026-04-28 19:39 49.35957 11.09583 3639 ft 70 kts 96°
2026-04-28 19:39 49.35866 11.10292 3853 ft 66 kts 97°
2026-04-28 19:39 49.35798 11.11032 3903 ft 76 kts 92°
2026-04-28 19:39 49.35764 11.11857 3943 ft 80 kts 92°
2026-04-28 19:40 49.35712 11.12715 3976 ft 81 kts 93°
2026-04-28 19:40 49.35625 11.13586 3981 ft 84 kts 100°
2026-04-28 19:40 49.35456 11.14469 3971 ft 88 kts 103°
2026-04-28 19:40 49.35263 11.15358 3977 ft 89 kts 105°
2026-04-28 19:41 49.35026 11.16241 3969 ft 89 kts 109°
2026-04-28 19:41 49.34760 11.17088 3949 ft 90 kts 112°
2026-04-28 19:41 49.34452 11.17909 3953 ft 88 kts 114°
2026-04-28 19:41 49.34113 11.18696 3952 ft 90 kts 125°
2026-04-28 19:42 49.33719 11.19420 3956 ft 85 kts 109°
2026-04-28 19:42 49.33612 11.20267 3970 ft 81 kts 86°
2026-04-28 19:42 49.33707 11.21108 3987 ft 80 kts 76°
2026-04-28 19:42 49.33812 11.21656 3982 ft 82 kts 75°
2026-04-28 19:43 49.34030 11.22769 3998 ft 81 kts 78°
2026-04-28 19:43 49.34174 11.23612 4006 ft 82 kts 77°
2026-04-28 19:43 49.34271 11.24169 4020 ft 81 kts 76°
2026-04-28 19:43 49.34520 11.25284 3999 ft 82 kts 74°
2026-04-28 19:44 49.34624 11.25824 4036 ft 78 kts 78°
2026-04-28 19:44 49.34877 11.26563 4064 ft 83 kts 52°
2026-04-28 19:44 49.35401 11.27020 4027 ft 88 kts 34°
2026-04-28 19:44 49.35942 11.27270 4006 ft 80 kts 19°
2026-04-28 19:45 49.36528 11.27160 3884 ft 91 kts 356°
2026-04-28 19:45 49.37127 11.26688 3697 ft 104 kts 336°
2026-04-28 19:45 49.37684 11.25885 3466 ft 114 kts 320°
2026-04-28 19:45 49.38163 11.24903 3267 ft 115 kts 314°
2026-04-28 19:46 49.38584 11.23909 3169 ft 107 kts 312°
2026-04-28 19:46 49.38962 11.22964 3099 ft 102 kts 309°
2026-04-28 19:46 49.39297 11.22032 3037 ft 102 kts 298°
2026-04-28 19:46 49.39375 11.20928 2967 ft 107 kts 270°
2026-04-28 19:47 49.39347 11.19758 3007 ft 114 kts 269°
2026-04-28 19:47 49.39310 11.18517 3025 ft 119 kts 269°
2026-04-28 19:47 49.39294 11.17216 3015 ft 123 kts 272°
2026-04-28 19:47 49.39303 11.15873 2965 ft 127 kts 273°
2026-04-28 19:48 49.39345 11.14520 2936 ft 127 kts 277°
2026-04-28 19:48 49.39441 11.13206 2974 ft 122 kts 282°
2026-04-28 19:48 49.39543 11.11906 2964 ft 122 kts 279°
2026-04-28 19:48 49.39639 11.10600 2963 ft 121 kts 281°
2026-04-28 19:49 49.39760 11.09331 2984 ft 121 kts 283°
2026-04-28 19:49 49.39918 11.08050 2991 ft 123 kts 285°
2026-04-28 19:49 49.40084 11.06768 2993 ft 123 kts 285°
2026-04-28 19:49 49.40243 11.05487 3022 ft 121 kts 284°
2026-04-28 19:50 49.40556 11.02918 3008 ft 122 kts 285°
2026-04-28 19:50 49.40758 11.01686 3052 ft 121 kts 290°
2026-04-28 19:50 49.41001 11.00446 3037 ft 126 kts 293°
2026-04-28 19:51 49.41440 10.99398 3056 ft 114 kts 333°
2026-04-28 19:51 49.42147 10.99094 3021 ft 100 kts 19°
2026-04-28 19:51 49.42778 10.99469 2969 ft 95 kts 35°
2026-04-28 19:51 49.43357 10.99957 2902 ft 93 kts 38°
2026-04-28 19:52 49.43859 11.00388 2854 ft 76 kts 39°
2026-04-28 19:52 49.44298 11.00786 2778 ft 70 kts 42°
2026-04-28 19:52 49.44687 11.01183 2714 ft 65 kts 45°
2026-04-28 19:52 49.45058 11.01564 2646 ft 63 kts 45°
2026-04-28 19:53 49.45434 11.01978 2506 ft 69 kts 43°
2026-04-28 19:53 49.45889 11.02192 2452 ft 70 kts 15°
2026-04-28 19:53 49.46374 11.02046 2423 ft 71 kts 355°
2026-04-28 19:53 49.46801 11.01653 2419 ft 72 kts 338°
2026-04-28 19:54 49.47191 11.01120 2359 ft 78 kts 328°
2026-04-28 19:54 49.47559 11.00506 2305 ft 77 kts 324°
2026-04-28 19:54 49.47897 10.99878 2263 ft 74 kts 326°
2026-04-28 19:54 49.48257 10.99283 2225 ft 82 kts 327°
2026-04-28 19:55 49.48683 10.98679 2188 ft 81 kts 338°
2026-04-28 19:55 49.49164 10.98288 2145 ft 77 kts 350°
2026-04-28 19:55 49.49648 10.98023 2111 ft 68 kts
2026-04-28 19:55 49.50090 10.97911 2028 ft 62 kts
2026-04-28 19:56 49.50480 10.98071 2013 ft 58 kts 41°
2026-04-28 19:56 49.50630 10.98586 2002 ft 55 kts 81°
2026-04-28 19:56 49.50635 10.99187 1950 ft 57 kts 79°
2026-04-28 19:56 49.50627 10.99818 1913 ft 62 kts 86°
2026-04-28 19:57 49.50578 11.00499 1848 ft 66 kts 88°
2026-04-28 19:57 49.50480 11.01187 1743 ft 67 kts 90°
2026-04-28 19:57 49.50437 11.01882 1663 ft 63 kts 81°
2026-04-28 19:57 49.50384 11.02545 1571 ft 61 kts 86°
2026-04-28 19:58 49.50332 11.03200 1515 ft 63 kts 89°
2026-04-28 19:58 49.50256 11.03890 1405 ft 69 kts 88°
2026-04-28 19:58 49.50185 11.04636 1295 ft 67 kts 92°
2026-04-28 19:58 49.50118 11.05288 1200 ft 64 kts 87°
2026-04-28 19:59 49.50046 11.06020 1045 ft 69 kts 91°
2026-04-28 19:59 49.49983 11.06621 1014 ft 44 kts 87°
2026-04-28 19:59 49.49962 11.06882 1012 ft 20 kts 101°
2026-04-28 19:59 49.49908 11.07013 1015 ft 13 kts 176°
2026-04-28 20:00 49.49840 11.07036 1015 ft 8 kts 163°
2026-04-28 20:00 49.49781 11.07073 1016 ft 12 kts 155°
2026-04-28 20:00 49.49742 11.07179 1019 ft 12 kts 93°
2026-04-28 20:00 49.49736 11.07208 1020 ft 8 kts 133°
2026-04-28 20:01 49.49674 11.07230 1021 ft 12 kts 187°
2026-04-28 20:01 49.49572 11.07205 1020 ft 14 kts 190°
2026-04-28 20:01 49.49504 11.07202 1019 ft 9 kts 131°
2026-04-28 20:01 49.49497 11.07255 1020 ft 0 kts 95°
2026-04-28 20:02 49.49496 11.07265 1020 ft 0 kts 96°
2026-04-28 20:02 49.49512 11.07283 1021 ft 10 kts
2026-04-28 20:02 49.49516 11.07284 1021 ft 0 kts 360°